createdAt,value
2023-02-06T00:00:04.905Z,0.00
2023-02-06T00:01:04.881Z,0.00
2023-02-06T00:02:05.006Z,0.00
2023-02-06T00:03:04.874Z,0.00
2023-02-06T00:04:05.009Z,0.00
2023-02-06T00:05:04.881Z,0.00
2023-02-06T00:06:04.952Z,0.00
2023-02-06T00:07:04.887Z,0.00
2023-02-06T00:08:04.893Z,0.00
2023-02-06T00:09:04.901Z,0.00
2023-02-06T00:10:04.943Z,0.00
2023-02-06T00:11:04.905Z,0.00
2023-02-06T00:12:04.901Z,0.00
2023-02-06T00:13:04.909Z,0.00
2023-02-06T00:14:04.907Z,0.00
2023-02-06T00:15:04.915Z,0.00
2023-02-06T00:16:04.949Z,0.00
2023-02-06T00:17:04.922Z,0.00
2023-02-06T00:18:04.931Z,0.00
2023-02-06T00:19:04.923Z,0.00
2023-02-06T00:20:04.923Z,0.00
2023-02-06T00:21:04.916Z,0.00
2023-02-06T00:22:04.929Z,0.00
2023-02-06T00:23:04.921Z,0.00
2023-02-06T00:24:04.941Z,0.00
2023-02-06T00:25:04.927Z,0.00
2023-02-06T00:26:04.932Z,0.00
2023-02-06T00:27:04.930Z,0.00
2023-02-06T00:28:05.029Z,0.00
2023-02-06T00:29:04.941Z,0.00
2023-02-06T00:30:04.958Z,0.00
2023-02-06T00:31:05.030Z,0.00
2023-02-06T00:32:04.959Z,0.00
2023-02-06T00:33:04.963Z,0.00
2023-02-06T00:34:04.986Z,0.00
2023-02-06T00:35:04.957Z,0.00
2023-02-06T00:36:04.960Z,0.00
2023-02-06T00:37:04.954Z,0.00
2023-02-06T00:38:04.960Z,0.00
2023-02-06T00:39:04.960Z,0.00
2023-02-06T00:40:04.967Z,0.00
2023-02-06T00:41:04.964Z,0.00
2023-02-06T00:42:04.978Z,0.00
2023-02-06T00:43:04.975Z,0.00
2023-02-06T00:44:04.974Z,0.00
2023-02-06T00:45:04.972Z,0.00
2023-02-06T00:46:05.034Z,0.00
2023-02-06T00:47:04.984Z,0.00
2023-02-06T00:48:05.005Z,0.00
2023-02-06T00:49:04.984Z,0.00
2023-02-06T00:50:05.111Z,0.00
2023-02-06T00:51:04.994Z,0.00
2023-02-06T00:52:04.998Z,0.00
2023-02-06T00:53:04.992Z,0.00
2023-02-06T00:54:05.000Z,0.00
2023-02-06T00:55:05.024Z,0.00
2023-02-06T00:56:05.018Z,0.00
2023-02-06T00:57:05.003Z,0.00
2023-02-06T00:58:05.010Z,0.00
2023-02-06T00:59:05.017Z,0.00
2023-02-06T01:00:05.010Z,0.00
2023-02-06T01:01:05.012Z,0.00
2023-02-06T01:02:05.013Z,0.00
2023-02-06T01:03:05.122Z,0.00
2023-02-06T01:04:05.020Z,0.00
2023-02-06T01:05:05.083Z,0.00
2023-02-06T01:06:05.083Z,0.00
2023-02-06T01:07:05.020Z,0.00
2023-02-06T01:08:05.028Z,0.00
2023-02-06T01:09:05.020Z,0.00
2023-02-06T01:10:05.026Z,0.00
2023-02-06T01:11:05.024Z,0.00
2023-02-06T01:12:05.035Z,0.00
2023-02-06T01:13:05.030Z,0.00
2023-02-06T01:14:05.031Z,0.00
2023-02-06T01:15:05.029Z,0.00
2023-02-06T01:16:05.060Z,0.00
2023-02-06T01:17:05.031Z,0.00
2023-02-06T01:18:05.055Z,0.00
2023-02-06T01:19:05.042Z,0.00
2023-02-06T01:20:05.176Z,0.00
2023-02-06T01:21:05.045Z,0.00
2023-02-06T01:22:05.067Z,0.00
2023-02-06T01:23:05.049Z,0.00
2023-02-06T01:24:05.045Z,0.00
2023-02-06T01:25:05.048Z,0.00
2023-02-06T01:26:05.055Z,0.00
2023-02-06T01:27:05.056Z,0.00
2023-02-06T01:28:05.117Z,0.00
2023-02-06T01:29:05.069Z,0.00
2023-02-06T01:30:05.052Z,0.00
2023-02-06T01:31:05.158Z,0.00
2023-02-06T01:32:05.054Z,0.00
2023-02-06T01:33:05.060Z,0.00
2023-02-06T01:34:05.057Z,0.00
2023-02-06T01:35:05.078Z,0.00
2023-02-06T01:36:05.086Z,0.00
2023-02-06T01:37:05.064Z,0.00
2023-02-06T01:38:05.137Z,0.00
2023-02-06T01:39:05.070Z,0.00
2023-02-06T01:40:05.067Z,0.00
2023-02-06T01:41:05.073Z,0.00
2023-02-06T01:42:05.071Z,0.00
2023-02-06T01:43:05.075Z,0.00
2023-02-06T01:44:05.074Z,0.00
2023-02-06T01:45:05.079Z,0.00
2023-02-06T01:46:05.077Z,0.00
2023-02-06T01:47:05.082Z,0.00
2023-02-06T01:48:05.080Z,0.00
2023-02-06T01:49:07.009Z,0.00
2023-02-06T01:50:05.092Z,0.00
2023-02-06T01:51:05.102Z,0.00
2023-02-06T01:52:05.088Z,0.00
2023-02-06T01:53:05.090Z,0.00
2023-02-06T01:54:05.178Z,0.00
2023-02-06T01:55:05.097Z,0.00
2023-02-06T01:56:05.093Z,0.00
2023-02-06T01:57:05.104Z,0.00
2023-02-06T01:58:05.105Z,0.00
2023-02-06T01:59:05.103Z,0.00
2023-02-06T02:00:05.100Z,0.00
2023-02-06T02:01:05.275Z,0.00
2023-02-06T02:02:05.208Z,0.00
2023-02-06T02:03:05.103Z,0.00
2023-02-06T02:04:05.102Z,0.00
2023-02-06T02:05:05.114Z,0.00
2023-02-06T02:06:05.130Z,0.00
2023-02-06T02:07:05.127Z,0.00
2023-02-06T02:08:05.128Z,0.00
2023-02-06T02:09:05.119Z,0.00
2023-02-06T02:10:05.162Z,0.00
2023-02-06T02:11:05.134Z,0.00
2023-02-06T02:12:05.119Z,0.00
2023-02-06T02:13:05.144Z,0.00
2023-02-06T02:14:05.121Z,0.00
2023-02-06T02:15:05.129Z,0.00
2023-02-06T02:16:05.126Z,0.00
2023-02-06T02:17:05.133Z,0.00
2023-02-06T02:18:05.134Z,0.00
2023-02-06T02:19:05.155Z,0.00
2023-02-06T02:20:05.132Z,0.00
2023-02-06T02:21:05.142Z,0.00
2023-02-06T02:22:05.141Z,0.00
2023-02-06T02:23:05.141Z,0.00
2023-02-06T02:24:05.145Z,0.00
2023-02-06T02:25:05.150Z,0.00
2023-02-06T02:26:05.168Z,0.00
2023-02-06T02:27:05.150Z,0.00
2023-02-06T02:28:05.177Z,0.00
2023-02-06T02:29:05.154Z,0.00
2023-02-06T02:30:05.159Z,0.00
2023-02-06T02:31:05.157Z,0.00
2023-02-06T02:32:05.154Z,0.00
2023-02-06T02:33:05.160Z,0.00
2023-02-06T02:34:05.158Z,0.00
2023-02-06T02:35:05.163Z,0.00
2023-02-06T02:36:05.161Z,0.00
2023-02-06T02:37:05.168Z,0.00
2023-02-06T02:38:05.201Z,0.00
2023-02-06T02:39:05.173Z,0.00
2023-02-06T02:40:07.574Z,0.00
2023-02-06T02:41:05.174Z,0.00
2023-02-06T02:42:05.194Z,0.00
2023-02-06T02:43:05.175Z,0.00
2023-02-06T02:44:05.174Z,0.00
2023-02-06T02:45:05.177Z,0.00
2023-02-06T02:46:05.220Z,0.00
2023-02-06T02:47:05.180Z,0.00
2023-02-06T02:48:05.176Z,0.00
2023-02-06T02:49:05.182Z,0.00
2023-02-06T02:50:05.192Z,0.00
2023-02-06T02:51:05.183Z,0.00
2023-02-06T02:52:05.181Z,0.00
2023-02-06T02:53:05.188Z,0.00
2023-02-06T02:54:05.183Z,0.00
2023-02-06T02:55:05.191Z,0.00
2023-02-06T02:56:05.185Z,0.00
2023-02-06T02:57:05.191Z,0.00
2023-02-06T02:58:05.210Z,0.00
2023-02-06T02:59:05.208Z,0.00
2023-02-06T03:00:05.204Z,0.00
2023-02-06T03:01:05.235Z,0.00
2023-02-06T03:02:05.254Z,0.00
2023-02-06T03:03:05.196Z,0.00
2023-02-06T03:04:05.191Z,0.00
2023-02-06T03:05:05.199Z,0.00
2023-02-06T03:06:05.212Z,0.00
2023-02-06T03:07:05.199Z,0.00
2023-02-06T03:08:05.198Z,0.00
2023-02-06T03:09:05.204Z,0.00
2023-02-06T03:10:05.207Z,0.00
2023-02-06T03:11:05.205Z,0.00
2023-02-06T03:12:05.203Z,0.00
2023-02-06T03:13:05.212Z,0.00
2023-02-06T03:14:05.226Z,0.00
2023-02-06T03:15:05.222Z,0.00
2023-02-06T03:16:05.269Z,0.00
2023-02-06T03:17:05.213Z,0.00
2023-02-06T03:18:05.236Z,0.00
2023-02-06T03:19:05.214Z,0.00
2023-02-06T03:20:05.218Z,0.00
2023-02-06T03:21:05.225Z,0.00
2023-02-06T03:22:05.217Z,0.00
2023-02-06T03:23:05.221Z,0.00
2023-02-06T03:24:05.221Z,0.00
2023-02-06T03:25:05.224Z,0.00
2023-02-06T03:26:05.232Z,0.00
2023-02-06T03:27:05.228Z,0.00
2023-02-06T03:28:05.315Z,0.00
2023-02-06T03:29:05.229Z,0.00
2023-02-06T03:30:05.258Z,0.00
2023-02-06T03:31:05.233Z,0.00
2023-02-06T03:32:05.231Z,0.00
2023-02-06T03:33:05.236Z,0.00
2023-02-06T03:34:05.236Z,0.00
2023-02-06T03:35:05.340Z,0.00
2023-02-06T03:36:05.251Z,0.00
2023-02-06T03:37:05.255Z,0.00
2023-02-06T03:38:05.253Z,0.00
2023-02-06T03:39:05.263Z,0.00
2023-02-06T03:40:05.254Z,0.00
2023-02-06T03:41:05.254Z,0.00
2023-02-06T03:42:05.248Z,0.00
2023-02-06T03:43:05.256Z,0.00
2023-02-06T03:44:05.250Z,0.00
2023-02-06T03:45:05.260Z,0.00
2023-02-06T03:46:05.403Z,0.00
2023-02-06T03:47:05.257Z,0.00
2023-02-06T03:48:05.255Z,0.00
2023-02-06T03:49:05.262Z,0.00
2023-02-06T03:50:05.259Z,0.00
2023-02-06T03:51:05.279Z,0.00
2023-02-06T03:52:05.260Z,0.00
2023-02-06T03:53:05.265Z,0.00
2023-02-06T03:54:05.264Z,0.00
2023-02-06T03:55:05.271Z,0.00
2023-02-06T03:56:05.268Z,0.00
2023-02-06T03:57:05.287Z,0.00
2023-02-06T03:58:05.275Z,0.00
2023-02-06T03:59:05.279Z,0.00
2023-02-06T04:00:05.274Z,0.00
2023-02-06T04:01:05.332Z,0.00
2023-02-06T04:02:05.402Z,0.00
2023-02-06T04:03:05.283Z,0.00
2023-02-06T04:04:05.284Z,0.00
2023-02-06T04:05:05.289Z,0.00
2023-02-06T04:06:05.284Z,0.00
2023-02-06T04:07:05.287Z,0.00
2023-02-06T04:08:05.285Z,0.00
2023-02-06T04:09:05.291Z,0.00
2023-02-06T04:10:05.303Z,0.00
2023-02-06T04:11:05.295Z,0.00
2023-02-06T04:12:05.293Z,0.00
2023-02-06T04:13:05.299Z,0.00
2023-02-06T04:14:05.300Z,0.00
2023-02-06T04:15:05.296Z,0.00
2023-02-06T04:16:05.295Z,0.00
2023-02-06T04:17:05.302Z,0.00
2023-02-06T04:18:06.214Z,0.00
2023-02-06T04:19:05.309Z,0.00
2023-02-06T04:20:05.310Z,0.00
2023-02-06T04:21:05.317Z,0.00
2023-02-06T04:22:05.300Z,0.00
2023-02-06T04:23:05.309Z,0.00
2023-02-06T04:24:05.310Z,0.00
2023-02-06T04:25:05.310Z,0.00
2023-02-06T04:26:05.310Z,0.00
2023-02-06T04:27:05.335Z,0.00
2023-02-06T04:28:05.360Z,0.00
2023-02-06T04:29:05.318Z,0.00
2023-02-06T04:30:05.309Z,0.00
2023-02-06T04:31:05.452Z,0.00
2023-02-06T04:32:05.313Z,0.00
2023-02-06T04:33:05.324Z,0.00
2023-02-06T04:34:05.339Z,0.00
2023-02-06T04:35:05.322Z,0.00
2023-02-06T04:36:05.316Z,0.00
2023-02-06T04:37:05.337Z,0.00
2023-02-06T04:38:05.320Z,0.00
2023-02-06T04:39:05.327Z,0.00
2023-02-06T04:40:05.341Z,0.00
2023-02-06T04:41:05.337Z,0.00
2023-02-06T04:42:05.337Z,0.00
2023-02-06T04:43:05.353Z,0.00
2023-02-06T04:44:05.339Z,0.00
2023-02-06T04:45:05.344Z,0.00
2023-02-06T04:46:05.382Z,0.00
2023-02-06T04:47:05.329Z,0.00
2023-02-06T04:48:05.328Z,0.00
2023-02-06T04:49:05.346Z,0.00
2023-02-06T04:50:05.352Z,0.00
2023-02-06T04:51:05.333Z,0.00
2023-02-06T04:52:05.334Z,0.00
2023-02-06T04:53:05.334Z,0.00
2023-02-06T04:54:05.333Z,0.00
2023-02-06T04:55:05.338Z,0.00
2023-02-06T04:56:05.347Z,0.00
2023-02-06T04:57:05.340Z,0.00
2023-02-06T04:58:05.337Z,0.00
2023-02-06T04:59:05.341Z,0.00
2023-02-06T05:00:05.347Z,0.00
2023-02-06T05:01:05.344Z,0.00
2023-02-06T05:02:05.340Z,0.00
2023-02-06T05:03:05.345Z,0.00
2023-02-06T05:04:05.345Z,0.00
2023-02-06T05:05:05.351Z,0.00
2023-02-06T05:06:05.418Z,0.00
2023-02-06T05:07:05.645Z,0.00
2023-02-06T05:08:05.344Z,0.00
2023-02-06T05:09:05.346Z,0.00
2023-02-06T05:10:05.352Z,0.00
2023-02-06T05:11:05.351Z,0.00
2023-02-06T05:12:05.346Z,0.00
2023-02-06T05:13:05.349Z,0.00
2023-02-06T05:14:05.346Z,0.00
2023-02-06T05:15:05.349Z,0.00
2023-02-06T05:16:05.421Z,0.00
2023-02-06T05:17:05.354Z,0.00
2023-02-06T05:18:05.349Z,0.00
2023-02-06T05:19:05.366Z,0.00
2023-02-06T05:20:05.349Z,0.00
2023-02-06T05:21:05.359Z,0.00
2023-02-06T05:22:05.395Z,0.00
2023-02-06T05:23:05.356Z,0.00
2023-02-06T05:24:05.355Z,0.00
2023-02-06T05:25:05.360Z,0.00
2023-02-06T05:26:05.360Z,0.00
2023-02-06T05:27:05.366Z,0.00
2023-02-06T05:28:05.369Z,0.00
2023-02-06T05:29:05.364Z,0.00
2023-02-06T05:30:05.362Z,0.00
2023-02-06T05:31:05.503Z,0.00
2023-02-06T05:32:05.364Z,0.00
2023-02-06T05:33:05.368Z,0.00
2023-02-06T05:34:05.367Z,0.00
2023-02-06T05:35:05.386Z,0.00
2023-02-06T05:36:05.367Z,0.00
2023-02-06T05:37:05.368Z,0.00
2023-02-06T05:38:05.391Z,0.00
2023-02-06T05:39:05.379Z,0.00
2023-02-06T05:40:05.373Z,0.00
2023-02-06T05:41:05.377Z,0.00
2023-02-06T05:42:05.376Z,0.00
2023-02-06T05:43:05.376Z,0.00
2023-02-06T05:44:05.381Z,0.00
2023-02-06T05:45:05.375Z,0.00
2023-02-06T05:46:05.422Z,0.00
2023-02-06T05:47:05.377Z,0.00
2023-02-06T05:48:05.384Z,0.00
2023-02-06T05:49:05.382Z,0.00
2023-02-06T05:50:05.384Z,0.00
2023-02-06T05:51:05.382Z,0.00
2023-02-06T05:52:05.388Z,0.00
2023-02-06T05:53:05.388Z,0.00
2023-02-06T05:54:05.411Z,0.00
2023-02-06T05:55:05.400Z,0.00
2023-02-06T05:56:05.392Z,0.00
2023-02-06T05:57:05.390Z,0.00
2023-02-06T05:58:06.371Z,0.00
2023-02-06T05:59:05.397Z,0.00
2023-02-06T06:00:05.399Z,0.00
2023-02-06T06:01:05.394Z,0.00
2023-02-06T06:02:05.398Z,0.00
2023-02-06T06:03:05.396Z,0.00
2023-02-06T06:04:05.450Z,0.00
2023-02-06T06:05:05.462Z,0.00
2023-02-06T06:06:05.404Z,0.00
2023-02-06T06:07:05.403Z,0.00
2023-02-06T06:08:05.412Z,0.00
2023-02-06T06:09:05.413Z,0.00
2023-02-06T06:10:05.432Z,0.00
2023-02-06T06:11:05.407Z,0.00
2023-02-06T06:12:05.412Z,0.00
2023-02-06T06:13:05.408Z,0.00
2023-02-06T06:14:05.411Z,0.00
2023-02-06T06:15:05.456Z,0.00
2023-02-06T06:16:05.484Z,0.00
2023-02-06T06:17:05.412Z,0.00
2023-02-06T06:18:05.419Z,0.00
2023-02-06T06:19:05.418Z,0.00
2023-02-06T06:20:05.429Z,0.00
2023-02-06T06:21:05.421Z,0.00
2023-02-06T06:22:05.419Z,0.00
2023-02-06T06:23:05.418Z,0.00
2023-02-06T06:24:05.421Z,0.00
2023-02-06T06:25:05.504Z,0.00
2023-02-06T06:26:05.462Z,0.00
2023-02-06T06:27:05.420Z,4.00
2023-02-06T06:28:05.459Z,0.00
2023-02-06T06:29:05.438Z,4.00
2023-02-06T06:30:05.454Z,0.00
2023-02-06T06:31:05.552Z,0.00
2023-02-06T06:32:05.439Z,0.00
2023-02-06T06:33:05.430Z,0.00
2023-02-06T06:34:05.433Z,4.00
2023-02-06T06:35:05.527Z,4.00
2023-02-06T06:36:05.429Z,4.00
2023-02-06T06:37:05.429Z,4.00
2023-02-06T06:38:05.433Z,8.00
2023-02-06T06:39:05.431Z,8.00
2023-02-06T06:40:05.442Z,8.00
2023-02-06T06:41:05.436Z,12.00
2023-02-06T06:42:05.521Z,12.00
2023-02-06T06:43:05.430Z,12.00
2023-02-06T06:44:05.444Z,16.00
2023-02-06T06:45:05.431Z,16.00
2023-02-06T06:46:05.554Z,16.00
2023-02-06T06:47:05.435Z,20.00
2023-02-06T06:48:05.438Z,20.00
2023-02-06T06:49:05.449Z,24.00
2023-02-06T06:50:05.437Z,24.00
2023-02-06T06:51:05.439Z,28.00
2023-02-06T06:52:08.869Z,28.00
2023-02-06T06:53:05.437Z,28.00
2023-02-06T06:54:05.443Z,36.00
2023-02-06T06:55:05.440Z,36.00
2023-02-06T06:56:05.440Z,36.00
2023-02-06T06:57:05.440Z,40.00
2023-02-06T06:58:05.460Z,44.00
2023-02-06T06:59:05.445Z,48.00
2023-02-06T07:00:05.463Z,52.00
2023-02-06T07:01:05.465Z,56.00
2023-02-06T07:02:05.450Z,56.00
2023-02-06T07:03:05.516Z,60.00
2023-02-06T07:04:05.449Z,56.00
2023-02-06T07:05:05.444Z,60.00
2023-02-06T07:06:05.458Z,64.00
2023-02-06T07:07:05.501Z,64.00
2023-02-06T07:08:05.450Z,64.00
2023-02-06T07:09:05.450Z,68.00
2023-02-06T07:10:05.453Z,68.00
2023-02-06T07:11:05.451Z,72.00
2023-02-06T07:12:05.461Z,76.00
2023-02-06T07:13:05.517Z,80.00
2023-02-06T07:14:05.492Z,76.00
2023-02-06T07:15:05.500Z,80.00
2023-02-06T07:16:05.490Z,84.00
2023-02-06T07:17:05.460Z,84.00
2023-02-06T07:18:05.459Z,88.00
2023-02-06T07:19:05.463Z,88.00
2023-02-06T07:20:05.460Z,92.00
2023-02-06T07:21:05.457Z,96.00
2023-02-06T07:22:05.465Z,96.00
2023-02-06T07:23:05.462Z,100.00
2023-02-06T07:24:05.465Z,100.00
2023-02-06T07:25:05.543Z,100.00
2023-02-06T07:26:05.479Z,104.00
2023-02-06T07:27:05.488Z,108.00
2023-02-06T07:28:05.495Z,108.00
2023-02-06T07:29:05.466Z,108.00
2023-02-06T07:30:06.613Z,112.00
2023-02-06T07:31:05.471Z,112.00
2023-02-06T07:32:05.474Z,116.00
2023-02-06T07:33:05.473Z,116.00
2023-02-06T07:34:05.474Z,120.00
2023-02-06T07:35:05.470Z,120.00
2023-02-06T07:36:05.474Z,120.00
2023-02-06T07:37:05.470Z,120.00
2023-02-06T07:38:05.500Z,124.00
2023-02-06T07:39:05.470Z,128.00
2023-02-06T07:40:05.478Z,128.00
2023-02-06T07:41:05.478Z,132.00
2023-02-06T07:42:05.480Z,132.00
2023-02-06T07:43:05.474Z,132.00
2023-02-06T07:44:05.480Z,132.00
2023-02-06T07:45:05.477Z,136.00
2023-02-06T07:46:05.543Z,136.00
2023-02-06T07:47:05.479Z,140.00
2023-02-06T07:48:05.487Z,136.00
2023-02-06T07:49:05.504Z,140.00
2023-02-06T07:50:05.482Z,140.00
2023-02-06T07:51:05.479Z,144.00
2023-02-06T07:52:05.484Z,144.00
2023-02-06T07:53:05.492Z,148.00
2023-02-06T07:54:05.486Z,148.00
2023-02-06T07:55:05.586Z,152.00
2023-02-06T07:56:05.495Z,148.00
2023-02-06T07:57:05.492Z,148.00
2023-02-06T07:58:05.496Z,152.00
2023-02-06T07:59:05.487Z,156.00
2023-02-06T08:00:05.491Z,156.00
2023-02-06T08:01:05.546Z,160.00
2023-02-06T08:02:05.625Z,160.00
2023-02-06T08:03:05.490Z,160.00
2023-02-06T08:04:05.549Z,160.00
2023-02-06T08:05:05.492Z,160.00
2023-02-06T08:06:05.497Z,160.00
2023-02-06T08:07:05.493Z,164.00
2023-02-06T08:08:05.495Z,164.00
2023-02-06T08:09:05.499Z,164.00
2023-02-06T08:10:05.510Z,164.00
2023-02-06T08:11:05.498Z,168.00
2023-02-06T08:12:05.498Z,172.00
2023-02-06T08:13:05.499Z,172.00
2023-02-06T08:14:05.504Z,172.00
2023-02-06T08:15:05.504Z,172.00
2023-02-06T08:16:05.505Z,172.00
2023-02-06T08:17:05.506Z,176.00
2023-02-06T08:18:05.533Z,176.00
2023-02-06T08:19:05.503Z,180.00
2023-02-06T08:20:05.507Z,188.00
2023-02-06T08:21:05.510Z,340.00
2023-02-06T08:22:05.511Z,648.00
2023-02-06T08:23:05.512Z,804.00
2023-02-06T08:24:05.514Z,824.00
2023-02-06T08:25:05.518Z,836.00
2023-02-06T08:26:05.514Z,852.00
2023-02-06T08:27:05.513Z,868.00
2023-02-06T08:28:05.561Z,884.00
2023-02-06T08:29:05.517Z,892.00
2023-02-06T08:30:05.518Z,908.00
2023-02-06T08:31:07.526Z,924.00
2023-02-06T08:32:05.522Z,936.00
2023-02-06T08:33:05.523Z,952.00
2023-02-06T08:34:05.548Z,964.00
2023-02-06T08:35:05.522Z,980.00
2023-02-06T08:36:05.528Z,992.00
2023-02-06T08:37:05.530Z,1008.00
2023-02-06T08:38:05.532Z,1020.00
2023-02-06T08:39:05.529Z,1032.00
2023-02-06T08:40:05.533Z,1048.00
2023-02-06T08:41:05.537Z,1056.00
2023-02-06T08:42:05.538Z,1072.00
2023-02-06T08:43:05.536Z,1084.00
2023-02-06T08:44:05.548Z,1096.00
2023-02-06T08:45:05.540Z,1104.00
2023-02-06T08:46:05.583Z,1120.00
2023-02-06T08:47:10.481Z,1136.00
2023-02-06T08:48:05.548Z,1144.00
2023-02-06T08:49:05.558Z,1156.00
2023-02-06T08:50:05.591Z,1168.00
2023-02-06T08:51:05.553Z,1180.00
2023-02-06T08:52:05.557Z,1196.00
2023-02-06T08:53:05.561Z,1208.00
2023-02-06T08:54:05.565Z,1220.00
2023-02-06T08:55:05.559Z,1232.00
2023-02-06T08:56:05.564Z,1244.00
2023-02-06T08:57:05.568Z,1256.00
2023-02-06T08:58:05.576Z,1268.00
2023-02-06T08:59:05.571Z,1280.00
2023-02-06T09:00:05.576Z,1292.00
2023-02-06T09:01:05.615Z,1304.00
2023-02-06T09:02:06.977Z,1312.00
2023-02-06T09:03:05.593Z,1324.00
2023-02-06T09:04:05.588Z,1336.00
2023-02-06T09:05:05.586Z,1348.00
2023-02-06T09:06:10.260Z,1360.00
2023-02-06T09:07:05.592Z,1368.00
2023-02-06T09:08:05.595Z,1380.00
2023-02-06T09:09:05.593Z,1388.00
2023-02-06T09:10:05.595Z,1396.00
2023-02-06T09:11:05.595Z,1408.00
2023-02-06T09:12:05.613Z,1416.00
2023-02-06T09:13:05.602Z,1428.00
2023-02-06T09:14:05.617Z,1436.00
2023-02-06T09:15:05.617Z,1448.00
2023-02-06T09:16:05.681Z,1456.00
2023-02-06T09:17:05.614Z,1468.00
2023-02-06T09:18:05.621Z,1484.00
2023-02-06T09:19:05.615Z,1492.00
2023-02-06T09:20:05.628Z,1504.00
2023-02-06T09:21:05.620Z,1516.00
2023-02-06T09:22:07.202Z,1524.00
2023-02-06T09:23:05.631Z,1532.00
2023-02-06T09:24:05.629Z,1540.00
2023-02-06T09:25:05.648Z,1548.00
2023-02-06T09:26:05.633Z,1556.00
2023-02-06T09:27:05.642Z,1568.00
2023-02-06T09:28:05.657Z,1576.00
2023-02-06T09:29:05.635Z,1584.00
2023-02-06T09:30:05.645Z,1592.00
2023-02-06T09:31:05.779Z,1600.00
2023-02-06T09:32:05.647Z,1608.00
2023-02-06T09:33:05.643Z,1616.00
2023-02-06T09:34:05.649Z,1624.00
2023-02-06T09:35:05.661Z,1632.00
2023-02-06T09:36:05.658Z,1640.00
2023-02-06T09:37:05.663Z,1652.00
2023-02-06T09:38:05.689Z,1660.00
2023-02-06T09:39:05.661Z,1672.00
2023-02-06T09:40:05.668Z,1680.00
2023-02-06T09:41:05.665Z,1688.00
2023-02-06T09:42:05.676Z,1692.00
2023-02-06T09:43:05.673Z,1700.00
2023-02-06T09:44:05.678Z,1712.00
2023-02-06T09:45:05.676Z,1720.00
2023-02-06T09:46:05.702Z,1732.00
2023-02-06T09:47:05.687Z,1744.00
2023-02-06T09:48:05.691Z,1760.00
2023-02-06T09:49:05.691Z,1772.00
2023-02-06T09:50:05.700Z,1788.00
2023-02-06T09:51:05.703Z,1804.00
2023-02-06T09:52:05.705Z,1820.00
2023-02-06T09:53:05.708Z,1836.00
2023-02-06T09:54:05.727Z,1848.00
2023-02-06T09:55:05.719Z,1860.00
2023-02-06T09:56:05.717Z,1880.00
2023-02-06T09:57:05.725Z,1892.00
2023-02-06T09:58:05.724Z,1908.00
2023-02-06T09:59:05.745Z,1920.00
2023-02-06T10:00:05.735Z,1928.00
2023-02-06T10:01:05.739Z,1940.00
2023-02-06T10:02:05.746Z,1948.00
2023-02-06T10:03:05.745Z,1956.00
2023-02-06T10:04:05.780Z,1968.00
2023-02-06T10:05:05.759Z,1980.00
2023-02-06T10:06:05.769Z,1988.00
2023-02-06T10:07:05.766Z,2000.00
2023-02-06T10:08:05.765Z,2000.00
2023-02-06T10:09:05.778Z,2012.00
2023-02-06T10:10:05.899Z,2020.00
2023-02-06T10:11:05.787Z,2028.00
2023-02-06T10:12:05.785Z,2032.00
2023-02-06T10:13:05.788Z,2044.00
2023-02-06T10:14:05.796Z,2048.00
2023-02-06T10:15:05.799Z,2056.00
2023-02-06T10:16:05.825Z,2060.00
2023-02-06T10:17:05.805Z,2068.00
2023-02-06T10:18:05.815Z,2076.00
2023-02-06T10:19:05.820Z,2080.00
2023-02-06T10:20:05.877Z,2096.00
2023-02-06T10:21:05.828Z,2096.00
2023-02-06T10:22:05.825Z,2104.00
2023-02-06T10:23:05.833Z,2112.00
2023-02-06T10:24:05.837Z,2120.00
2023-02-06T10:25:05.845Z,2128.00
2023-02-06T10:26:05.927Z,2136.00
2023-02-06T10:27:05.857Z,2140.00
2023-02-06T10:28:05.949Z,2152.00
2023-02-06T10:29:05.864Z,2152.00
2023-02-06T10:30:05.889Z,2160.00
2023-02-06T10:31:06.001Z,2164.00
2023-02-06T10:32:05.880Z,2172.00
2023-02-06T10:33:09.725Z,2180.00
2023-02-06T10:34:05.920Z,2188.00
2023-02-06T10:35:05.901Z,2188.00
2023-02-06T10:36:05.901Z,2200.00
2023-02-06T10:37:05.915Z,2204.00
2023-02-06T10:38:05.916Z,2212.00
2023-02-06T10:39:05.922Z,2216.00
2023-02-06T10:40:05.928Z,2224.00
2023-02-06T10:41:05.934Z,2220.00
2023-02-06T10:42:06.019Z,2232.00
2023-02-06T10:43:05.946Z,2236.00
2023-02-06T10:44:05.955Z,2240.00
2023-02-06T10:45:19.883Z,2248.00
2023-02-06T10:46:05.967Z,2256.00
2023-02-06T10:47:06.065Z,2260.00
2023-02-06T10:48:05.968Z,2268.00
2023-02-06T10:49:06.033Z,2276.00
2023-02-06T10:50:06.007Z,2276.00
2023-02-06T10:51:05.994Z,2284.00
2023-02-06T10:52:05.997Z,2288.00
2023-02-06T10:53:06.010Z,2292.00
2023-02-06T10:54:06.009Z,2296.00
2023-02-06T10:55:06.018Z,2300.00
2023-02-06T10:56:06.018Z,2304.00
2023-02-06T10:57:06.030Z,2312.00
2023-02-06T10:58:06.061Z,2312.00
2023-02-06T10:59:06.040Z,2316.00
2023-02-06T11:00:06.053Z,2324.00
2023-02-06T11:01:16.804Z,2324.00
2023-02-06T11:02:06.086Z,2332.00
2023-02-06T11:03:07.861Z,2332.00
2023-02-06T11:04:06.073Z,2336.00
2023-02-06T11:05:06.079Z,2336.00
2023-02-06T11:06:06.082Z,2344.00
2023-02-06T11:07:06.096Z,2340.00
2023-02-06T11:08:06.093Z,2344.00
2023-02-06T11:09:06.107Z,2344.00
2023-02-06T11:10:06.109Z,2348.00
2023-02-06T11:11:06.131Z,2352.00
2023-02-06T11:12:06.124Z,2352.00
2023-02-06T11:13:06.129Z,2356.00
2023-02-06T11:14:06.163Z,2356.00
2023-02-06T11:15:06.147Z,2360.00
2023-02-06T11:16:06.225Z,2364.00
2023-02-06T11:17:06.157Z,2364.00
2023-02-06T11:18:06.167Z,2368.00
2023-02-06T11:19:06.168Z,2368.00
2023-02-06T11:20:06.175Z,2376.00
2023-02-06T11:21:06.184Z,2372.00
2023-02-06T11:22:06.185Z,2372.00
2023-02-06T11:23:06.197Z,2376.00
2023-02-06T11:24:06.207Z,2376.00
2023-02-06T11:25:06.213Z,2380.00
2023-02-06T11:26:06.216Z,2380.00
2023-02-06T11:27:06.225Z,2384.00
2023-02-06T11:28:06.298Z,2388.00
2023-02-06T11:29:06.257Z,2384.00
2023-02-06T11:30:06.275Z,2388.00
2023-02-06T11:31:06.386Z,2388.00
2023-02-06T11:32:06.275Z,2388.00
2023-02-06T11:33:06.273Z,2392.00
2023-02-06T11:34:06.278Z,2396.00
2023-02-06T11:35:06.293Z,2396.00
2023-02-06T11:36:06.293Z,2396.00
2023-02-06T11:37:06.291Z,2400.00
2023-02-06T11:38:06.302Z,2400.00
2023-02-06T11:39:06.307Z,2400.00
2023-02-06T11:40:06.315Z,2404.00
2023-02-06T11:41:06.320Z,2400.00
2023-02-06T11:42:06.327Z,2404.00
2023-02-06T11:43:06.344Z,2404.00
2023-02-06T11:44:06.374Z,2408.00
2023-02-06T11:45:06.359Z,2404.00
2023-02-06T11:46:06.588Z,2408.00
2023-02-06T11:47:06.366Z,2404.00
2023-02-06T11:48:06.372Z,2404.00
2023-02-06T11:49:06.384Z,2408.00
2023-02-06T11:50:06.384Z,2408.00
2023-02-06T11:51:06.410Z,2408.00
2023-02-06T11:52:06.397Z,2404.00
2023-02-06T11:53:06.411Z,2404.00
2023-02-06T11:54:06.416Z,2400.00
2023-02-06T11:55:06.424Z,2408.00
2023-02-06T11:56:06.428Z,2412.00
2023-02-06T11:57:06.440Z,2412.00
2023-02-06T11:58:06.445Z,2408.00
2023-02-06T11:59:07.127Z,2404.00
2023-02-06T12:00:06.459Z,2408.00
2023-02-06T12:01:06.593Z,2408.00
2023-02-06T12:02:06.550Z,2400.00
2023-02-06T12:03:06.523Z,2404.00
2023-02-06T12:04:06.488Z,2400.00
2023-02-06T12:05:06.493Z,2404.00
2023-02-06T12:06:06.499Z,2404.00
2023-02-06T12:07:06.537Z,2400.00
2023-02-06T12:08:06.533Z,2400.00
2023-02-06T12:09:06.525Z,2396.00
2023-02-06T12:10:06.547Z,2396.00
2023-02-06T12:11:06.538Z,2392.00
2023-02-06T12:12:06.547Z,2396.00
2023-02-06T12:13:06.559Z,2392.00
2023-02-06T12:14:06.559Z,2392.00
2023-02-06T12:15:29.394Z,2392.00
2023-02-06T12:16:06.577Z,2388.00
2023-02-06T12:17:06.583Z,2388.00
2023-02-06T12:18:06.645Z,2388.00
2023-02-06T12:19:06.599Z,2392.00
2023-02-06T12:20:06.605Z,2388.00
2023-02-06T12:21:06.668Z,2380.00
2023-02-06T12:22:06.641Z,2376.00
2023-02-06T12:23:06.626Z,2376.00
2023-02-06T12:24:06.722Z,2380.00
2023-02-06T12:25:06.641Z,2376.00
2023-02-06T12:26:06.647Z,2376.00
2023-02-06T12:27:06.657Z,2376.00
2023-02-06T12:28:06.724Z,2376.00
2023-02-06T12:29:06.668Z,2372.00
2023-02-06T12:30:06.681Z,2372.00
2023-02-06T12:31:06.840Z,2368.00
2023-02-06T12:32:06.693Z,2364.00
2023-02-06T12:33:06.728Z,2364.00
2023-02-06T12:34:06.735Z,2364.00
2023-02-06T12:35:06.717Z,2364.00
2023-02-06T12:36:06.712Z,2364.00
2023-02-06T12:37:06.728Z,2356.00
2023-02-06T12:38:06.728Z,2356.00
2023-02-06T12:39:06.739Z,2356.00
2023-02-06T12:40:06.745Z,2352.00
2023-02-06T12:41:06.753Z,2352.00
2023-02-06T12:42:06.767Z,2352.00
2023-02-06T12:43:06.771Z,2348.00
2023-02-06T12:44:06.772Z,2348.00
2023-02-06T12:45:06.783Z,2344.00
2023-02-06T12:46:07.393Z,2348.00
2023-02-06T12:47:06.807Z,2344.00